Главная страница
METAR-TAF:

METAR-TAF

Аэропорты :

Питерборо, Онтарио, Канада

широта: 44-14N, долгота: 078-22W, высота над уровнем моря: 191 м

Текущие метеонаблюдения

Эта сводка был подготовлена 20 минут назад, в 07:00 UTC
Ветер 2 Узел от северо-северо-восточный
Температура -9°C
Влажность 100%
Давление 1017 hPa
Видимость: 14.5 км
Рассеянная облачность на высоте 22000 фута
Сплошная облачность на высоте 25000 фута

METAR: CYPQ 190700Z AUTO 03002KT 9SM BKN220 OVC250 M09/M09 A3004 RMK SLP187

Время: 02:20 (07:20 UTC)

Прогноз

Эта сводка был подготовлена 11 часа и 41 минут назад, в 19:39 UTC
Прогноз действительный с 18-го 20 UTC до 19-го 03 UTC
Ветер 8 Узел от западно-северо-западный
Видимость: 10 км
ясное небо
изменения
С 18-го 22 UTC до 18-го 24 UTC
Ветер 3 Узел переменных направлений

TAF: CYPQ 181939Z 1820/1903 30008KT P6SM SKC BECMG 1822/1824 VRB03KT RMK FCST BASED ON AUTO OBS. NXT FCST WILL BE ISSUED AT 191045Z

Метеонаблюдения и прогнозы для более 4000 аэропортов (сводки METAR и TAF).

Имеющиеся станции представлены на карте желтыми и красными точками.

Чтобы увидеть название станции, наведите на нее мышь.

Затем щелкните, чтобы увидеть метеонаблюдения и метеопрогнозы.

Управление картой: чтобы увеличить масштаб, щелкните зеленые кнопки с черным крестиком; чтобы уменьшить масштаб, щелкните зеленую кнопку с тире; для просмотра соседних карт щелкайте зеленые стрелки.


METAR-TAF: